Time;durP1;ratioP1;P1;durP2;ratioP2;P2;SDS_P1;SDS_P2;PMS_P1;PMS_P2;Temp;Humidity;BMP_temperature;BMP_pressure;BME280_temperature;BME280_humidity;BME280_pressure;Samples;Min_cycle;Max_cycle;Signal;HPM_P1;HPM_P2
2021/05/05 00:03:05;;;;;;;4.72;3.03;;;16.60;49.20;;;;;;20921800;28;20080;-61
2021/05/05 00:13:07;;;;;;;3.15;2.40;;;16.40;49.80;;;;;;20921672;28;20107;-63
2021/05/05 00:23:08;;;;;;;6.40;2.97;;;16.20;49.40;;;;;;20920812;28;20080;-61
2021/05/05 00:33:10;;;;;;;4.13;3.00;;;16.20;48.70;;;;;;20919834;28;20140;-59
2021/05/05 00:43:11;;;;;;;4.97;2.50;;;16.00;50.20;;;;;;20918233;28;20081;-60
2021/05/05 00:53:12;;;;;;;5.00;2.85;;;15.80;49.80;;;;;;20918101;28;20132;-63
2021/05/05 01:03:14;;;;;;;4.07;2.65;;;15.70;48.70;;;;;;20921332;28;20643;-65
2021/05/05 01:13:16;;;;;;;4.60;3.30;;;15.70;47.80;;;;;;20919119;28;20166;-60
2021/05/05 01:23:17;;;;;;;3.03;2.50;;;15.60;46.50;;;;;;20916328;28;20049;-60
2021/05/05 01:33:18;;;;;;;5.10;3.17;;;15.60;46.60;;;;;;20915251;28;20052;-60
2021/05/05 01:43:20;;;;;;;4.63;3.25;;;15.50;47.00;;;;;;20914708;28;20045;-65
2021/05/05 01:53:21;;;;;;;5.32;3.13;;;15.40;47.70;;;;;;20913440;28;20052;-65
2021/05/05 02:03:22;;;;;;;3.30;2.60;;;15.50;45.00;;;;;;20912037;28;20049;-66
2021/05/05 02:13:24;;;;;;;4.72;2.58;;;15.50;44.20;;;;;;20913586;28;20179;-64
2021/05/05 02:23:25;;;;;;;3.65;2.70;;;15.50;43.80;;;;;;20912274;28;20052;-61
2021/05/05 02:33:27;;;;;;;3.58;2.72;;;15.40;44.70;;;;;;20911701;28;20092;-61
2021/05/05 02:43:28;;;;;;;3.50;2.90;;;15.20;45.70;;;;;;20911566;28;20485;-61
2021/05/05 02:53:29;;;;;;;4.00;2.60;;;14.90;46.70;;;;;;20909730;28;20430;-61
2021/05/05 03:03:30;;;;;;;4.18;2.70;;;15.00;47.70;;;;;;20914083;28;20044;-64
2021/05/05 03:13:32;;;;;;;3.83;2.67;;;15.00;47.40;;;;;;20926895;28;20071;-64
2021/05/05 03:23:33;;;;;;;4.07;2.95;;;14.90;47.00;;;;;;20926008;28;20489;-65
2021/05/05 03:33:34;;;;;;;3.70;2.53;;;14.80;47.40;;;;;;20924496;28;20080;-66
2021/05/05 03:43:35;;;;;;;3.30;2.15;;;14.90;46.60;;;;;;20923832;28;20049;-64
2021/05/05 03:53:37;;;;;;;4.53;2.78;;;14.80;46.80;;;;;;20922790;28;20057;-61
2021/05/05 04:03:38;;;;;;;5.40;2.50;;;14.90;49.30;;;;;;20922336;28;20053;-64
2021/05/05 04:13:40;;;;;;;4.18;2.40;;;14.60;50.40;;;;;;20922190;28;20469;-64
2021/05/05 04:23:41;;;;;;;2.92;2.40;;;14.30;51.80;;;;;;20920664;28;20460;-65
2021/05/05 04:33:45;;;;;;;4.55;2.58;;;14.20;52.30;;;;;;20920064;28;20045;-62
2021/05/05 04:43:47;;;;;;;6.05;3.05;;;14.10;52.70;;;;;;20919747;28;20406;-65
2021/05/05 04:53:48;;;;;;;5.38;3.20;;;14.00;53.00;;;;;;20918105;28;20481;-63
2021/05/05 05:03:49;;;;;;;5.55;3.25;;;14.00;53.40;;;;;;20917471;28;20049;-64
2021/05/05 05:13:51;;;;;;;6.28;3.35;;;13.90;53.60;;;;;;20916640;28;20045;-61
2021/05/05 05:23:52;;;;;;;5.55;3.78;;;14.00;53.70;;;;;;20915414;28;20049;-61
2021/05/05 05:33:54;;;;;;;4.43;3.15;;;14.00;54.30;;;;;;20914633;28;20056;-61
2021/05/05 05:43:55;;;;;;;4.13;2.95;;;13.90;54.70;;;;;;20915028;28;20049;-63
2021/05/05 05:53:57;;;;;;;3.90;2.67;;;13.70;55.00;;;;;;20914318;28;20045;-66
2021/05/05 06:03:58;;;;;;;4.43;3.20;;;13.70;54.50;;;;;;20911806;28;20452;-65
2021/05/05 06:13:59;;;;;;;8.70;4.07;;;13.70;53.80;;;;;;20911991;28;20049;-61
2021/05/05 06:24:00;;;;;;;5.25;3.88;;;13.80;52.90;;;;;;20911016;28;20049;-62
2021/05/05 06:34:02;;;;;;;10.77;3.88;;;14.00;52.80;;;;;;20911377;28;20086;-64
2021/05/05 06:44:03;;;;;;;7.55;4.60;;;14.40;52.10;;;;;;20925069;28;20041;-63
2021/05/05 06:54:06;;;;;;;12.32;5.47;;;15.00;50.60;;;;;;20925639;28;20076;-60
2021/05/05 07:04:08;;;;;;;7.57;5.00;;;15.80;49.00;;;;;;20925435;28;20489;-61
2021/05/05 07:14:10;;;;;;;10.13;6.20;;;16.40;47.90;;;;;;20926345;28;20550;-62
2021/05/05 07:24:11;;;;;;;10.50;5.35;;;17.20;45.90;;;;;;20924756;28;20052;-63
2021/05/05 07:34:15;;;;;;;12.60;8.65;;;17.80;44.20;;;;;;20924239;28;20056;-66
2021/05/05 07:54:36;;;;;;;10.30;6.20;;;18.70;42.80;;;;;;20922426;28;20076;-62
2021/05/05 08:04:38;;;;;;;7.35;5.50;;;19.20;41.20;;;;;;20922605;28;20045;-65
2021/05/05 08:14:43;;;;;;;11.38;6.60;;;19.60;40.50;;;;;;20921034;28;20080;-65
2021/05/05 08:24:44;;;;;;;11.27;6.30;;;20.00;39.70;;;;;;20920261;28;20116;-65
2021/05/05 08:34:46;;;;;;;15.32;8.07;;;20.40;39.20;;;;;;20919546;28;20139;-66
2021/05/05 08:44:49;;;;;;;12.63;5.68;;;20.70;38.50;;;;;;20919924;28;20099;-63
2021/05/05 08:54:50;;;;;;;5.43;3.17;;;21.10;37.80;;;;;;20916479;28;20413;-58
2021/05/05 09:04:56;;;;;;;9.07;4.05;;;21.50;39.50;;;;;;20915733;28;20076;-54
2021/05/05 09:15:02;;;;;;;11.23;2.80;;;21.70;38.40;;;;;;20887168;28;20160;-58
2021/05/05 09:25:05;;;;;;;8.77;3.05;;;22.20;36.50;;;;;;20869625;28;20543;-57
2021/05/05 09:35:07;;;;;;;7.00;2.65;;;22.40;36.10;;;;;;20913565;28;20059;-58
2021/05/05 09:45:11;;;;;;;9.68;2.40;;;22.40;36.40;;;;;;20911147;28;20052;-61
2021/05/05 09:55:18;;;;;;;12.00;3.63;;;22.30;35.90;;;;;;20912731;28;20135;-58
2021/05/05 10:05:23;;;;;;;8.98;3.50;;;22.60;35.70;;;;;;20912253;28;20055;-60
2021/05/05 10:15:27;;;;;;;7.70;3.25;;;22.70;34.70;;;;;;20911340;28;20497;-62
2021/05/05 10:25:29;;;;;;;5.93;2.53;;;22.70;34.40;;;;;;20910771;28;20589;-59
2021/05/05 10:35:30;;;;;;;11.20;3.20;;;22.70;33.40;;;;;;20909612;28;20140;-57
2021/05/05 10:45:41;;;;;;;7.15;3.00;;;22.60;33.90;;;;;;20910970;28;20049;-57
2021/05/05 10:55:48;;;;;;;6.10;2.90;;;22.80;33.10;;;;;;20909283;28;20095;-57
2021/05/05 11:05:49;;;;;;;6.50;2.75;;;22.90;32.90;;;;;;20909942;28;20135;-57
2021/05/05 11:15:50;;;;;;;8.43;3.00;;;22.90;32.90;;;;;;20909431;28;20135;-58
2021/05/05 11:26:13;;;;;;;4.88;3.38;;;22.90;32.20;;;;;;20913862;28;20115;-56
2021/05/05 11:36:15;;;;;;;5.95;2.53;;;23.10;31.50;;;;;;20922615;28;20507;-56
2021/05/05 11:46:21;;;;;;;2.88;2.10;;;23.10;31.20;;;;;;20922676;28;20447;-59
2021/05/05 11:56:27;;;;;;;2.92;1.90;;;23.40;30.90;;;;;;20922278;28;20393;-60
2021/05/05 12:06:49;;;;;;;3.85;2.20;;;23.40;30.20;;;;;;20920400;28;20132;-61
2021/05/05 12:16:51;;;;;;;7.72;4.35;;;23.50;30.60;;;;;;20921715;28;20519;-61
2021/05/05 12:26:52;;;;;;;5.57;3.08;;;23.70;30.60;;;;;;20920835;28;20093;-62
2021/05/05 12:36:55;;;;;;;5.22;2.30;;;23.70;30.80;;;;;;20919504;28;20045;-61
2021/05/05 12:47:14;;;;;;;4.70;1.95;;;24.10;30.10;;;;;;20919685;28;20519;-61
2021/05/05 12:57:21;;;;;;;4.13;2.55;;;24.20;30.40;;;;;;20917475;28;20049;-58
2021/05/05 13:07:43;;;;;;;2.78;1.85;;;24.20;30.10;;;;;;20917673;28;20477;-59
2021/05/05 13:18:23;;;;;;;5.30;2.40;;;24.20;30.20;;;;;;20917620;28;20107;-59
2021/05/05 13:39:09;;;;;;;3.53;1.77;;;24.40;30.10;;;;;;20660962;28;20415;-58
2021/05/05 13:59:33;;;;;;;4.57;2.73;;;24.50;30.10;;;;;;20498751;28;20134;-59
2021/05/05 14:09:34;;;;;;;2.95;1.90;;;24.60;29.90;;;;;;20625458;28;20053;-60
2021/05/05 14:19:40;;;;;;;3.28;1.90;;;24.80;29.70;;;;;;20739847;28;20057;-59
2021/05/05 14:29:41;;;;;;;2.85;1.85;;;24.80;29.10;;;;;;20771553;28;20056;-58
2021/05/05 14:39:43;;;;;;;2.67;1.93;;;24.90;29.10;;;;;;20912419;28;20044;-59
2021/05/05 14:49:48;;;;;;;3.30;1.87;;;24.90;29.00;;;;;;20911965;28;20044;-58
2021/05/05 14:59:49;;;;;;;4.18;2.10;;;24.90;28.30;;;;;;20915550;28;20497;-58
2021/05/05 15:09:57;;;;;;;3.60;1.90;;;25.10;28.00;;;;;;20926541;28;20080;-59
2021/05/05 15:30:07;;;;;;;2.97;2.20;;;25.00;27.60;;;;;;20923088;28;20136;-61
2021/05/05 15:40:34;;;;;;;6.07;1.90;;;24.90;27.60;;;;;;20924071;28;20052;-56
2021/05/05 15:50:32;;;;;;;3.55;2.03;;;25.00;27.30;;;;;;20880791;28;20060;-56
2021/05/05 16:00:50;;;;;;;;;;;24.70;27.90;;;;;;20849566;28;20081;-57
2021/05/05 16:21:01;;;;;;;6.50;4.03;;;24.80;27.70;;;;;;20846935;28;20479;-55
2021/05/05 17:11:39;;;;;;;4.88;2.00;;;24.70;28.40;;;;;;20912387;28;20538;-56
2021/05/05 17:21:41;;;;;;;3.30;2.43;;;24.60;28.30;;;;;;20911421;28;20135;-58
2021/05/05 18:23:44;;;;;;;5.53;3.10;;;23.90;29.70;;;;;;20912280;28;20041;-54
2021/05/05 18:33:46;;;;;;;4.32;2.42;;;23.70;29.50;;;;;;20918653;28;20118;-56
2021/05/05 20:26:25;;;;;;;4.78;2.70;;;21.90;36.60;;;;;;20920746;28;20136;-60
2021/05/05 21:28:34;;;;;;;6.18;2.70;;;21.00;38.80;;;;;;20916092;28;20060;-60
